Time;durP1;ratioP1;P1;durP2;ratioP2;P2;SDS_P1;SDS_P2;PMS_P1;PMS_P2;Temp;Humidity;BMP_temperature;BMP_pressure;BME280_temperature;BME280_humidity;BME280_pressure;Samples;Min_cycle;Max_cycle;Signal;HPM_P1;HPM_P2
2023/09/18 00:01:31;;;;;;;9.82;4.38;;;24.30;96.70;;;;;;5103389;28;20127;-74
2023/09/18 00:03:59;;;;;;;6.30;3.83;;;24.30;96.70;;;;;;5085323;28;20040;-74
2023/09/18 00:06:30;;;;;;;4.63;3.78;;;24.30;96.70;;;;;;5085834;28;20145;-74
2023/09/18 00:08:58;;;;;;;7.00;4.25;;;24.30;96.70;;;;;;5103875;28;20048;-75
2023/09/18 00:11:26;;;;;;;6.55;4.15;;;24.20;96.70;;;;;;5085829;28;20039;-74
2023/09/18 00:13:54;;;;;;;6.47;4.07;;;24.10;96.70;;;;;;5085253;28;20126;-74
2023/09/18 00:16:22;;;;;;;7.93;4.53;;;24.10;96.70;;;;;;5104354;28;20044;-74
2023/09/18 00:18:50;;;;;;;5.28;4.40;;;24.10;96.70;;;;;;5107060;28;20138;-75
2023/09/18 00:21:18;;;;;;;6.50;4.38;;;24.10;96.70;;;;;;5073874;28;20100;-74
2023/09/18 00:23:48;;;;;;;8.00;4.70;;;24.10;96.70;;;;;;5090679;28;20409;-74
2023/09/18 00:26:16;;;;;;;6.50;4.60;;;24.10;96.70;;;;;;5092196;28;20039;-74
2023/09/18 00:28:49;;;;;;;5.78;4.78;;;23.90;96.70;;;;;;5090135;28;20451;-74
2023/09/18 00:31:18;;;;;;;5.80;4.45;;;23.90;96.70;;;;;;5098938;28;20147;-74
2023/09/18 00:33:48;;;;;;;5.85;4.72;;;23.90;96.70;;;;;;5089608;28;20035;-74
2023/09/18 00:36:16;;;;;;;5.45;4.95;;;23.90;96.70;;;;;;5086268;28;20089;-74
2023/09/18 00:38:44;;;;;;;7.43;4.80;;;23.90;96.70;;;;;;5089566;28;20057;-74
2023/09/18 00:41:14;;;;;;;5.90;4.65;;;23.90;96.70;;;;;;5078248;28;20094;-74
2023/09/18 00:43:43;;;;;;;7.88;5.18;;;23.90;96.70;;;;;;5089298;28;20043;-73
2023/09/18 00:46:12;;;;;;;5.65;4.85;;;23.80;96.70;;;;;;5107608;28;20370;-74
2023/09/18 00:48:40;;;;;;;5.57;4.65;;;23.70;96.70;;;;;;5088542;28;20134;-73
2023/09/18 00:51:09;;;;;;;6.95;4.80;;;23.70;96.70;;;;;;5089721;28;20968;-73
2023/09/18 00:53:38;;;;;;;7.88;5.18;;;23.60;96.70;;;;;;5104730;28;20153;-73
2023/09/18 00:56:06;;;;;;;6.60;4.20;;;23.60;96.70;;;;;;5091644;28;20146;-74
2023/09/18 00:58:36;;;;;;;5.15;4.57;;;23.60;96.70;;;;;;5099357;28;20053;-74
2023/09/18 01:01:04;;;;;;;6.13;4.90;;;23.60;96.70;;;;;;5089632;28;20129;-73
2023/09/18 01:03:32;;;;;;;5.53;4.72;;;23.60;96.70;;;;;;5069502;28;20052;-73
2023/09/18 01:06:01;;;;;;;7.72;5.00;;;23.60;96.70;;;;;;5070830;28;20044;-73
2023/09/18 01:08:30;;;;;;;6.20;4.45;;;23.50;96.70;;;;;;5072308;28;20056;-74
2023/09/18 01:11:08;;;;;;;7.45;4.63;;;23.50;96.70;;;;;;5093318;27;20129;-74
2023/09/18 01:13:45;;;;;;;5.80;5.03;;;23.40;96.70;;;;;;5088512;28;20047;-75
2023/09/18 01:16:20;;;;;;;8.60;5.13;;;23.50;96.70;;;;;;5088677;28;20048;-74
2023/09/18 01:18:51;;;;;;;6.95;4.85;;;23.50;96.70;;;;;;5071423;28;20527;-74
2023/09/18 01:21:20;;;;;;;9.70;5.07;;;23.50;96.70;;;;;;5081278;28;20059;-74
2023/09/18 01:23:51;;;;;;;5.88;4.78;;;23.50;96.70;;;;;;5076684;28;20115;-75
2023/09/18 01:26:20;;;;;;;9.77;4.72;;;23.50;96.70;;;;;;5089929;28;20077;-74
2023/09/18 01:28:48;;;;;;;5.20;4.00;;;23.50;96.70;;;;;;5105469;28;20035;-75
2023/09/18 01:31:17;;;;;;;5.30;4.60;;;23.60;96.70;;;;;;5100502;28;20101;-74
2023/09/18 01:33:47;;;;;;;8.73;4.72;;;23.60;96.70;;;;;;5087966;28;20648;-73
2023/09/18 01:36:17;;;;;;;6.82;4.30;;;23.60;96.70;;;;;;5080828;28;20120;-74
2023/09/18 01:38:46;;;;;;;5.53;4.75;;;23.60;96.70;;;;;;5088399;28;20512;-74
2023/09/18 01:41:17;;;;;;;6.22;4.28;;;23.70;96.70;;;;;;5106589;28;20058;-74
2023/09/18 01:43:45;;;;;;;6.13;4.70;;;23.70;96.70;;;;;;5106721;28;20092;-73
2023/09/18 01:46:14;;;;;;;5.00;4.10;;;23.70;96.70;;;;;;5084008;28;20048;-74
2023/09/18 01:48:47;;;;;;;5.38;4.25;;;23.70;96.70;;;;;;5087334;28;20035;-74
2023/09/18 01:51:16;;;;;;;6.15;4.60;;;23.60;96.70;;;;;;5088428;28;20097;-74
2023/09/18 01:53:44;;;;;;;5.63;4.18;;;23.60;96.70;;;;;;5105964;28;20040;-74
2023/09/18 01:56:12;;;;;;;9.13;4.57;;;23.60;96.70;;;;;;5106487;28;20481;-74
2023/09/18 01:58:42;;;;;;;8.07;3.97;;;23.60;96.70;;;;;;5071779;28;20069;-74
2023/09/18 02:01:10;;;;;;;6.72;4.60;;;23.60;96.70;;;;;;5087346;28;20043;-74
2023/09/18 02:03:41;;;;;;;7.53;4.07;;;23.70;96.70;;;;;;5071200;28;20058;-74
2023/09/18 02:06:19;;;;;;;4.93;3.92;;;23.50;96.70;;;;;;5098926;28;20043;-74
2023/09/18 02:08:48;;;;;;;6.53;4.05;;;23.60;96.70;;;;;;5088061;28;20043;-74
2023/09/18 02:11:17;;;;;;;7.25;4.50;;;23.60;96.70;;;;;;5088512;28;20062;-74
2023/09/18 02:13:46;;;;;;;5.28;3.90;;;23.50;96.70;;;;;;5088153;28;20439;-73
2023/09/18 02:16:14;;;;;;;7.22;3.90;;;23.40;96.70;;;;;;5089034;28;20048;-75
2023/09/18 02:18:44;;;;;;;7.30;4.43;;;23.40;96.70;;;;;;5088000;28;20126;-74
2023/09/18 02:21:18;;;;;;;6.90;4.43;;;23.30;96.70;;;;;;5105541;28;20069;-74
2023/09/18 02:23:48;;;;;;;5.60;3.70;;;23.30;96.70;;;;;;5086282;28;20070;-73
2023/09/18 02:26:16;;;;;;;7.10;4.35;;;23.40;96.70;;;;;;5087789;28;20048;-74
2023/09/18 02:28:47;;;;;;;5.65;4.15;;;23.40;96.70;;;;;;5087587;28;20047;-73
2023/09/18 02:31:16;;;;;;;4.68;3.92;;;23.30;96.70;;;;;;5086954;28;20070;-74
2023/09/18 02:33:44;;;;;;;6.80;4.30;;;23.30;96.70;;;;;;5088983;28;20126;-74
2023/09/18 02:36:12;;;;;;;5.32;3.47;;;23.30;96.70;;;;;;5070299;28;20071;-74
2023/09/18 02:38:40;;;;;;;6.53;4.13;;;23.30;96.70;;;;;;5088024;28;20505;-74
2023/09/18 02:41:08;;;;;;;6.68;4.05;;;23.30;96.70;;;;;;5069627;28;20421;-74
2023/09/18 02:43:39;;;;;;;6.32;3.95;;;23.30;96.70;;;;;;5087446;28;20059;-75
2023/09/18 02:46:09;;;;;;;7.00;4.43;;;23.30;96.70;;;;;;5086422;28;20048;-74
2023/09/18 02:48:37;;;;;;;4.55;3.70;;;23.30;96.70;;;;;;5102192;28;20041;-74
2023/09/18 02:51:05;;;;;;;5.18;3.67;;;23.30;96.70;;;;;;5071184;28;20047;-74
2023/09/18 02:53:33;;;;;;;5.75;4.00;;;23.30;96.70;;;;;;5105929;28;20101;-74
2023/09/18 02:56:02;;;;;;;4.65;3.83;;;23.20;96.70;;;;;;5079037;28;20400;-73
2023/09/18 02:58:30;;;;;;;5.07;3.97;;;23.10;96.70;;;;;;5087122;28;20076;-73
2023/09/18 03:00:59;;;;;;;5.28;3.85;;;23.00;96.70;;;;;;5100958;28;20435;-74
2023/09/18 03:03:30;;;;;;;5.80;3.83;;;23.10;96.70;;;;;;5070890;28;20088;-74
2023/09/18 03:06:03;;;;;;;5.47;4.40;;;23.00;96.70;;;;;;5086475;28;20083;-74
2023/09/18 03:08:32;;;;;;;6.00;4.18;;;22.90;96.70;;;;;;5086648;28;20120;-74
2023/09/18 03:11:00;;;;;;;6.63;4.63;;;22.90;96.70;;;;;;5086976;28;20043;-74
2023/09/18 03:13:29;;;;;;;4.80;3.78;;;23.00;96.70;;;;;;5104652;28;20743;-74
2023/09/18 03:15:57;;;;;;;6.60;4.10;;;22.90;96.70;;;;;;5068640;28;20039;-74
2023/09/18 03:18:29;;;;;;;5.88;3.92;;;22.90;96.70;;;;;;5084986;28;20105;-74
2023/09/18 03:20:57;;;;;;;8.23;4.45;;;22.90;96.70;;;;;;5086331;27;20454;-74
2023/09/18 03:23:25;;;;;;;5.18;4.05;;;22.90;96.70;;;;;;5076540;28;20059;-74
2023/09/18 03:25:53;;;;;;;4.55;3.85;;;23.00;96.70;;;;;;5070017;28;20086;-74
2023/09/18 03:28:22;;;;;;;5.47;4.05;;;23.10;96.70;;;;;;5086192;28;20043;-74
2023/09/18 03:30:50;;;;;;;5.88;4.22;;;22.90;96.70;;;;;;5090353;28;20048;-74
2023/09/18 03:33:22;;;;;;;7.65;4.28;;;23.00;96.70;;;;;;5082849;28;20410;-74
2023/09/18 03:35:54;;;;;;;6.38;4.28;;;23.00;96.70;;;;;;5085140;28;20055;-73
2023/09/18 03:38:26;;;;;;;8.10;4.47;;;23.00;96.70;;;;;;5085152;28;20079;-73
2023/09/18 03:40:55;;;;;;;4.90;3.90;;;22.90;96.70;;;;;;5086715;28;20047;-73
2023/09/18 03:43:23;;;;;;;4.88;4.38;;;23.00;96.70;;;;;;5066326;28;20486;-73
2023/09/18 03:45:51;;;;;;;5.93;4.70;;;23.00;96.70;;;;;;5069813;28;20130;-73
2023/09/18 03:48:20;;;;;;;5.50;4.00;;;22.90;96.70;;;;;;5085167;28;20063;-74
2023/09/18 03:50:48;;;;;;;5.40;4.03;;;22.90;96.70;;;;;;5068799;28;20652;-74
2023/09/18 03:53:18;;;;;;;7.53;4.53;;;22.90;96.70;;;;;;5068284;28;20442;-74
2023/09/18 03:55:48;;;;;;;6.35;4.60;;;22.80;96.70;;;;;;5090442;28;20047;-73
2023/09/18 03:58:16;;;;;;;5.78;4.35;;;22.80;96.70;;;;;;5068231;28;20461;-72
2023/09/18 04:00:44;;;;;;;5.65;3.95;;;22.90;96.70;;;;;;5068723;28;20050;-74
2023/09/18 04:03:12;;;;;;;6.03;4.70;;;22.90;96.70;;;;;;5084841;28;20446;-74
2023/09/18 04:05:40;;;;;;;4.80;4.38;;;22.90;96.70;;;;;;5077547;28;20104;-73
2023/09/18 04:08:08;;;;;;;6.32;4.28;;;22.90;96.70;;;;;;5079566;28;20040;-72
2023/09/18 04:10:38;;;;;;;5.55;4.45;;;23.00;96.70;;;;;;5102708;28;20690;-72
2023/09/18 04:13:06;;;;;;;4.88;3.70;;;23.00;96.70;;;;;;5084801;28;20580;-72
2023/09/18 04:15:37;;;;;;;6.72;4.10;;;23.00;96.70;;;;;;5082801;28;20048;-73
2023/09/18 04:18:06;;;;;;;4.38;3.97;;;22.80;96.70;;;;;;5066156;28;20055;-73
2023/09/18 04:20:35;;;;;;;5.55;4.30;;;22.60;96.70;;;;;;5066442;28;20035;-73
2023/09/18 04:23:21;;;;;;;7.80;4.68;;;22.70;96.70;;;;;;5067771;28;20051;-73
2023/09/18 04:25:54;;;;;;;7.35;4.68;;;22.70;96.70;;;;;;5117936;28;20098;-73
2023/09/18 04:28:23;;;;;;;5.10;4.40;;;22.70;96.70;;;;;;5102863;28;20346;-73
2023/09/18 04:30:51;;;;;;;6.93;4.57;;;22.60;96.70;;;;;;5069272;28;20047;-73
2023/09/18 04:33:21;;;;;;;5.07;4.57;;;22.60;96.70;;;;;;5085568;28;20413;-73
2023/09/18 04:35:50;;;;;;;7.07;4.65;;;22.50;96.70;;;;;;5103396;28;20039;-72
2023/09/18 04:38:19;;;;;;;6.45;4.22;;;22.60;96.70;;;;;;5081511;28;20052;-73
2023/09/18 04:40:48;;;;;;;6.50;4.30;;;22.60;96.70;;;;;;5081469;28;20048;-72
2023/09/18 04:43:17;;;;;;;6.47;5.10;;;22.50;96.70;;;;;;5098952;28;20125;-72
2023/09/18 04:45:45;;;;;;;7.90;4.78;;;22.50;96.70;;;;;;5081723;28;20050;-72
2023/09/18 04:48:15;;;;;;;6.45;4.68;;;22.50;96.70;;;;;;5061997;28;20375;-72
2023/09/18 04:50:43;;;;;;;9.05;5.40;;;22.50;96.70;;;;;;5081190;28;20041;-72
2023/09/18 04:53:12;;;;;;;6.78;4.43;;;22.60;96.70;;;;;;5083273;28;20047;-71
2023/09/18 04:55:41;;;;;;;7.13;4.90;;;22.50;96.70;;;;;;5081534;28;20532;-73
2023/09/18 04:58:09;;;;;;;6.30;4.85;;;22.40;96.70;;;;;;5064861;28;20573;-74
2023/09/18 05:00:39;;;;;;;5.97;4.55;;;22.50;96.70;;;;;;5064606;28;20537;-73
2023/09/18 05:03:08;;;;;;;5.13;4.45;;;22.50;96.70;;;;;;5083159;28;20763;-73
2023/09/18 05:05:36;;;;;;;6.80;4.28;;;22.50;96.70;;;;;;5084515;28;20474;-73
2023/09/18 05:08:09;;;;;;;7.57;4.95;;;22.60;96.70;;;;;;5085255;28;20060;-73
2023/09/18 05:10:37;;;;;;;7.15;4.57;;;22.60;96.70;;;;;;5077943;28;20148;-73
2023/09/18 05:13:06;;;;;;;6.68;4.43;;;22.60;96.70;;;;;;5069193;28;20453;-72
2023/09/18 05:15:34;;;;;;;7.05;5.03;;;22.60;96.70;;;;;;5082076;28;20569;-73
2023/09/18 05:18:04;;;;;;;7.03;4.20;;;22.60;96.70;;;;;;5087663;28;20048;-73
2023/09/18 05:20:34;;;;;;;4.95;4.47;;;22.60;96.70;;;;;;5085194;28;20068;-74
2023/09/18 05:23:02;;;;;;;6.85;4.70;;;22.60;96.70;;;;;;5066654;28;20052;-73
2023/09/18 05:25:32;;;;;;;6.57;4.15;;;22.60;96.70;;;;;;5086571;28;20135;-73
2023/09/18 05:28:01;;;;;;;8.60;4.68;;;22.60;96.70;;;;;;5084699;28;20036;-72
2023/09/18 05:30:33;;;;;;;4.88;4.32;;;22.60;96.70;;;;;;5086316;28;20055;-73
2023/09/18 05:33:04;;;;;;;6.65;4.53;;;22.60;96.70;;;;;;5085272;28;20039;-73
2023/09/18 05:35:34;;;;;;;5.43;4.43;;;22.60;96.70;;;;;;5081933;28;20040;-72
2023/09/18 05:38:02;;;;;;;8.32;4.10;;;22.60;96.70;;;;;;5101079;28;20626;-73
2023/09/18 05:40:31;;;;;;;6.68;4.05;;;22.70;96.70;;;;;;5088922;28;20073;-73
2023/09/18 05:43:00;;;;;;;5.47;4.22;;;22.70;96.70;;;;;;5089576;28;20035;-73
2023/09/18 05:45:30;;;;;;;6.72;4.10;;;22.70;96.70;;;;;;5085748;28;20051;-73
2023/09/18 05:48:03;;;;;;;6.57;4.70;;;22.80;96.70;;;;;;5097809;28;20070;-73
2023/09/18 05:50:35;;;;;;;8.40;4.43;;;22.80;96.70;;;;;;5071510;28;20620;-72
2023/09/18 05:53:04;;;;;;;8.73;5.13;;;22.70;96.70;;;;;;5084065;28;20044;-73
2023/09/18 05:55:33;;;;;;;6.97;4.85;;;22.70;96.70;;;;;;5087650;28;20410;-73
2023/09/18 05:58:04;;;;;;;9.75;5.03;;;22.60;96.70;;;;;;5104997;28;20058;-73
2023/09/18 06:00:33;;;;;;;6.53;4.55;;;22.60;96.70;;;;;;5070690;28;20358;-72
2023/09/18 06:03:01;;;;;;;9.05;5.35;;;22.70;96.70;;;;;;5071432;28;20070;-72
2023/09/18 06:05:31;;;;;;;7.57;4.28;;;22.80;96.70;;;;;;5084206;28;20145;-72
2023/09/18 06:08:01;;;;;;;9.10;5.13;;;22.80;96.70;;;;;;5103080;28;20527;-74
2023/09/18 06:10:30;;;;;;;9.88;5.10;;;22.70;96.70;;;;;;5070677;28;20048;-72
2023/09/18 06:13:03;;;;;;;8.57;4.82;;;22.60;96.70;;;;;;5079330;28;20043;-73
2023/09/18 06:15:33;;;;;;;7.93;5.22;;;22.60;96.70;;;;;;5069828;28;20154;-72
2023/09/18 06:18:01;;;;;;;9.27;5.03;;;22.70;96.70;;;;;;5101249;28;20056;-73
2023/09/18 06:20:30;;;;;;;10.73;4.40;;;22.90;96.70;;;;;;5106009;28;20101;-72
2023/09/18 06:23:00;;;;;;;9.10;4.72;;;23.00;96.70;;;;;;5087177;28;20126;-73
2023/09/18 06:25:28;;;;;;;5.97;4.70;;;23.10;96.70;;;;;;5105468;28;20054;-72
2023/09/18 06:27:56;;;;;;;11.30;5.10;;;23.20;96.70;;;;;;5080716;28;20799;-73
2023/09/18 06:30:25;;;;;;;7.68;4.82;;;23.20;96.70;;;;;;5087343;28;20298;-71
2023/09/18 06:32:53;;;;;;;7.35;4.75;;;23.20;96.70;;;;;;5086185;28;20043;-73
2023/09/18 06:35:22;;;;;;;6.55;5.05;;;23.30;96.70;;;;;;5086680;28;20043;-72
2023/09/18 06:37:50;;;;;;;7.25;4.45;;;23.40;96.70;;;;;;5087759;28;20085;-72
2023/09/18 06:40:21;;;;;;;9.27;4.43;;;23.40;96.70;;;;;;5085965;28;20043;-73
2023/09/18 06:42:49;;;;;;;7.82;5.25;;;23.50;96.70;;;;;;5087007;28;20131;-72
2023/09/18 06:45:17;;;;;;;5.45;4.35;;;23.60;96.70;;;;;;5105709;28;20512;-73
2023/09/18 06:47:46;;;;;;;9.10;4.30;;;23.60;96.70;;;;;;5087138;28;20443;-73
2023/09/18 06:50:15;;;;;;;8.02;4.85;;;23.70;96.70;;;;;;5087243;28;20391;-73
2023/09/18 06:52:43;;;;;;;6.68;4.60;;;23.80;96.70;;;;;;5086862;28;20494;-73
2023/09/18 06:55:12;;;;;;;10.02;4.40;;;23.90;96.70;;;;;;5096989;28;20134;-73
2023/09/18 06:57:42;;;;;;;8.52;4.60;;;24.00;96.70;;;;;;5087308;28;20040;-73
2023/09/18 07:00:11;;;;;;;9.35;4.40;;;24.00;96.70;;;;;;5070701;28;20050;-74
2023/09/18 07:02:39;;;;;;;8.75;4.85;;;24.10;96.70;;;;;;5104792;28;20063;-73
2023/09/18 07:05:09;;;;;;;9.38;4.57;;;24.20;96.70;;;;;;5086693;28;20500;-73
2023/09/18 07:07:37;;;;;;;7.72;4.72;;;24.40;96.70;;;;;;5104992;28;20074;-73
2023/09/18 07:10:07;;;;;;;8.85;4.53;;;24.40;96.70;;;;;;5086065;28;20497;-74
2023/09/18 07:12:36;;;;;;;10.68;4.88;;;24.50;96.70;;;;;;5070726;28;20046;-72
2023/09/18 07:15:07;;;;;;;10.88;5.30;;;24.60;96.70;;;;;;5084927;28;20040;-72
2023/09/18 07:17:36;;;;;;;11.27;4.88;;;24.60;96.70;;;;;;5102008;28;20378;-73
2023/09/18 07:20:13;;;;;;;7.30;4.60;;;24.60;96.70;;;;;;5085652;28;20100;-74
2023/09/18 07:22:47;;;;;;;9.55;4.13;;;24.70;96.70;;;;;;5086119;28;20071;-74
2023/09/18 07:25:15;;;;;;;6.28;3.85;;;24.70;96.70;;;;;;5086822;28;20539;-74
2023/09/18 07:27:44;;;;;;;10.48;4.45;;;24.80;96.70;;;;;;5098876;28;20089;-74
2023/09/18 07:30:19;;;;;;;8.20;4.68;;;24.80;96.70;;;;;;5104797;28;20485;-73
2023/09/18 07:32:47;;;;;;;5.65;3.72;;;24.80;96.70;;;;;;5078920;28;20126;-73
2023/09/18 07:35:16;;;;;;;8.45;3.97;;;24.90;96.70;;;;;;5104983;28;20477;-72
2023/09/18 07:37:46;;;;;;;7.57;4.15;;;24.90;96.70;;;;;;5103764;28;20057;-73
2023/09/18 07:40:18;;;;;;;9.13;4.30;;;24.90;96.70;;;;;;5105200;28;20047;-74
2023/09/18 07:42:47;;;;;;;9.15;3.67;;;24.90;96.70;;;;;;5073729;28;20684;-73
2023/09/18 07:45:18;;;;;;;11.32;4.18;;;25.00;96.70;;;;;;5104600;28;20062;-73
2023/09/18 07:47:46;;;;;;;9.50;3.72;;;25.10;96.70;;;;;;5069073;28;20116;-74
2023/09/18 07:50:15;;;;;;;9.65;3.72;;;25.20;96.70;;;;;;5104287;28;20059;-74
2023/09/18 07:52:46;;;;;;;5.82;3.80;;;25.30;96.70;;;;;;5104337;28;20044;-74
2023/09/18 07:55:15;;;;;;;5.55;3.63;;;25.40;96.70;;;;;;5088127;28;20505;-73
2023/09/18 07:57:45;;;;;;;10.05;4.25;;;25.50;96.70;;;;;;5102973;28;20114;-73
2023/09/18 08:00:15;;;;;;;5.70;3.33;;;25.60;96.70;;;;;;5085940;28;20067;-74
2023/09/18 08:02:48;;;;;;;5.88;2.95;;;25.70;96.70;;;;;;5100820;28;20044;-73
2023/09/18 08:05:17;;;;;;;8.10;3.60;;;25.70;96.70;;;;;;5086784;28;20040;-73
2023/09/18 08:07:47;;;;;;;7.38;3.55;;;25.70;96.70;;;;;;5086059;28;20700;-73
2023/09/18 08:10:16;;;;;;;6.32;3.60;;;25.80;96.70;;;;;;5103270;28;20122;-73
2023/09/18 08:12:44;;;;;;;7.75;3.58;;;25.90;96.70;;;;;;5079650;28;20116;-73
2023/09/18 08:15:13;;;;;;;6.93;3.20;;;26.00;96.70;;;;;;5069148;28;20044;-75
2023/09/18 08:17:42;;;;;;;7.55;3.10;;;26.00;96.70;;;;;;5102336;28;21244;-74
2023/09/18 08:20:13;;;;;;;4.20;2.97;;;26.00;96.70;;;;;;5102891;28;20039;-74
2023/09/18 08:22:42;;;;;;;4.72;2.80;;;26.10;96.70;;;;;;5101620;28;20502;-74
2023/09/18 08:25:10;;;;;;;6.50;3.00;;;26.10;96.70;;;;;;5107247;28;20133;-74
2023/09/18 08:27:41;;;;;;;6.70;3.10;;;26.20;96.70;;;;;;5103594;28;20036;-74
2023/09/18 08:30:11;;;;;;;7.45;3.08;;;26.20;96.70;;;;;;5103349;28;20048;-75
2023/09/18 08:32:40;;;;;;;5.25;2.88;;;26.20;96.70;;;;;;5081870;28;20046;-74
2023/09/18 08:35:09;;;;;;;5.65;3.17;;;26.20;96.70;;;;;;5071888;28;20052;-75
2023/09/18 08:37:40;;;;;;;7.70;3.13;;;26.20;96.70;;;;;;5085210;28;20047;-75
2023/09/18 08:40:13;;;;;;;6.63;2.90;;;26.30;96.70;;;;;;5090277;28;20047;-75
2023/09/18 08:42:46;;;;;;;5.82;2.90;;;26.30;96.70;;;;;;5088817;28;20043;-74
2023/09/18 08:45:22;;;;;;;9.30;2.83;;;26.30;96.70;;;;;;5088646;28;20036;-75
2023/09/18 08:47:54;;;;;;;5.82;2.80;;;26.40;96.70;;;;;;5088950;28;20043;-75
2023/09/18 08:50:23;;;;;;;5.55;2.75;;;26.60;96.70;;;;;;5088354;28;20055;-74
2023/09/18 08:52:54;;;;;;;7.38;2.97;;;26.70;96.70;;;;;;5107499;28;20048;-74
2023/09/18 08:55:23;;;;;;;7.57;3.17;;;26.80;96.70;;;;;;5101851;28;20050;-75
2023/09/18 08:57:53;;;;;;;6.97;3.55;;;26.80;96.70;;;;;;5088639;28;20042;-76
2023/09/18 09:00:21;;;;;;;7.00;2.65;;;26.80;96.70;;;;;;5107411;28;20055;-75
2023/09/18 09:02:52;;;;;;;8.50;3.13;;;26.80;96.70;;;;;;5115009;27;20138;-76
2023/09/18 09:05:21;;;;;;;5.60;2.70;;;26.80;96.70;;;;;;5089153;28;20122;-76
2023/09/18 09:07:50;;;;;;;8.77;2.90;;;27.00;96.70;;;;;;5084294;28;20040;-75
2023/09/18 09:10:20;;;;;;;4.93;2.50;;;27.00;96.70;;;;;;5083969;28;20044;-75
2023/09/18 09:12:53;;;;;;;7.35;3.00;;;27.10;96.70;;;;;;5089796;28;20047;-75
2023/09/18 09:15:23;;;;;;;4.32;2.60;;;27.20;96.70;;;;;;5105945;28;20036;-75
2023/09/18 09:18:01;;;;;;;5.38;2.83;;;27.30;96.70;;;;;;5094154;28;20897;-75
2023/09/18 09:20:30;;;;;;;3.20;2.80;;;27.50;96.70;;;;;;5071954;28;20431;-75
2023/09/18 09:23:02;;;;;;;6.15;2.63;;;27.60;96.70;;;;;;5090383;28;20043;-76
2023/09/18 09:25:34;;;;;;;7.75;3.00;;;27.80;96.70;;;;;;5088786;28;20489;-75
2023/09/18 09:28:04;;;;;;;4.63;2.70;;;28.00;96.70;;;;;;5085949;28;20048;-76
2023/09/18 09:30:35;;;;;;;7.00;2.97;;;28.10;96.70;;;;;;5107588;28;20048;-76
2023/09/18 09:33:07;;;;;;;5.43;2.58;;;28.20;96.70;;;;;;5106586;28;20043;-75
2023/09/18 09:35:36;;;;;;;5.38;3.05;;;28.10;96.70;;;;;;5088803;28;20044;-75
2023/09/18 09:38:09;;;;;;;7.53;3.28;;;28.00;96.70;;;;;;5104048;28;20044;-76
2023/09/18 09:40:41;;;;;;;6.93;3.40;;;27.90;96.70;;;;;;5071679;28;20102;-76
2023/09/18 09:43:13;;;;;;;5.55;2.92;;;27.90;96.70;;;;;;5071445;28;20075;-76
2023/09/18 09:45:42;;;;;;;3.78;2.83;;;28.00;96.70;;;;;;5106709;28;20070;-75
2023/09/18 09:48:11;;;;;;;5.93;3.25;;;28.10;96.70;;;;;;5087189;28;20059;-75
2023/09/18 09:50:48;;;;;;;8.15;2.92;;;28.20;96.70;;;;;;5097578;28;20048;-76
2023/09/18 09:53:18;;;;;;;5.43;3.13;;;28.20;96.70;;;;;;5071183;28;20455;-75
2023/09/18 09:55:54;;;;;;;6.85;3.25;;;28.30;96.70;;;;;;5074074;28;20503;-74
2023/09/18 09:58:27;;;;;;;3.40;2.85;;;28.60;96.70;;;;;;5086966;28;20047;-76
2023/09/18 10:00:59;;;;;;;9.60;3.80;;;28.80;96.70;;;;;;5088233;28;20048;-75
2023/09/18 10:03:28;;;;;;;5.25;3.15;;;28.90;96.70;;;;;;5071668;28;20501;-76
2023/09/18 10:06:00;;;;;;;6.40;3.17;;;29.00;96.70;;;;;;5106397;28;20683;-76
2023/09/18 10:08:30;;;;;;;6.53;3.20;;;29.20;96.70;;;;;;5106655;28;20039;-76
2023/09/18 10:11:06;;;;;;;7.93;3.53;;;29.30;96.70;;;;;;5070959;28;20052;-76
2023/09/18 10:13:41;;;;;;;5.32;3.35;;;29.20;96.70;;;;;;5087806;28;20043;-76
2023/09/18 10:16:11;;;;;;;7.05;3.88;;;29.30;96.70;;;;;;5072258;28;20407;-75
2023/09/18 10:18:56;;;;;;;7.20;3.95;;;29.20;96.70;;;;;;5072210;28;20040;-76
2023/09/18 10:21:33;;;;;;;10.20;3.50;;;29.20;96.70;;;;;;5080639;28;20052;-76
2023/09/18 10:24:12;;;;;;;4.65;3.15;;;29.10;96.70;;;;;;5088146;28;20051;-76
2023/09/18 10:26:50;;;;;;;7.60;4.07;;;29.20;96.70;;;;;;5070805;28;20058;-74
2023/09/18 10:29:20;;;;;;;7.20;3.85;;;29.40;96.70;;;;;;5079958;28;20705;-75
2023/09/18 10:31:50;;;;;;;10.00;3.55;;;29.40;96.70;;;;;;5088182;28;20524;-76
2023/09/18 10:34:19;;;;;;;7.60;3.60;;;29.50;96.70;;;;;;5104512;28;20043;-75
2023/09/18 10:36:48;;;;;;;7.85;3.95;;;29.50;96.70;;;;;;5105137;28;20120;-75
2023/09/18 10:39:19;;;;;;;9.25;3.70;;;29.60;96.70;;;;;;5085461;28;20055;-75
2023/09/18 10:41:53;;;;;;;10.85;4.53;;;29.50;96.70;;;;;;5069416;28;20047;-78
2023/09/18 10:44:23;;;;;;;9.40;4.57;;;29.40;96.70;;;;;;5066333;28;20134;-74
2023/09/18 10:46:53;;;;;;;8.50;3.55;;;29.30;96.70;;;;;;5065148;28;20055;-74
2023/09/18 10:49:21;;;;;;;9.27;4.25;;;29.20;96.70;;;;;;5085316;28;20043;-74
2023/09/18 10:51:54;;;;;;;7.45;3.90;;;29.20;96.70;;;;;;5105601;28;20036;-74
2023/09/18 10:54:25;;;;;;;6.22;3.70;;;29.10;96.70;;;;;;5105560;28;20093;-74
2023/09/18 10:56:57;;;;;;;9.27;4.18;;;29.10;96.70;;;;;;5091370;28;20330;-75
2023/09/18 10:59:27;;;;;;;8.07;3.58;;;29.10;96.70;;;;;;5070370;28;20157;-75
2023/09/18 11:01:56;;;;;;;7.07;3.40;;;29.10;96.70;;;;;;5106215;28;20082;-74
2023/09/18 11:04:24;;;;;;;8.23;3.97;;;29.30;96.70;;;;;;5105198;28;20524;-75
2023/09/18 11:07:03;;;;;;;8.80;3.97;;;29.20;96.70;;;;;;5106208;28;20047;-75
2023/09/18 11:09:39;;;;;;;6.78;3.17;;;29.10;96.70;;;;;;5079153;28;20074;-74
2023/09/18 11:12:11;;;;;;;6.68;3.53;;;29.10;96.70;;;;;;5070221;28;20051;-75
2023/09/18 11:14:48;;;;;;;8.45;4.00;;;29.10;96.70;;;;;;5087000;28;20057;-74
2023/09/18 11:17:33;;;;;;;8.95;4.10;;;29.20;96.70;;;;;;5104506;28;20043;-75
2023/09/18 11:20:11;;;;;;;6.07;3.25;;;29.20;96.70;;;;;;5104142;28;20470;-74
2023/09/18 11:22:46;;;;;;;9.55;3.72;;;29.20;96.70;;;;;;5069935;28;20054;-75
2023/09/18 11:25:48;;;;;;;9.25;3.75;;;29.40;96.70;;;;;;5104547;28;20134;-75
2023/09/18 11:28:24;;;;;;;10.20;4.28;;;29.60;96.70;;;;;;5041389;28;20055;-75
2023/09/18 11:30:58;;;;;;;7.03;4.00;;;29.80;96.70;;;;;;5024010;28;20095;-74
2023/09/18 11:33:37;;;;;;;7.63;3.58;;;29.90;96.70;;;;;;5011248;28;20180;-74
2023/09/18 11:36:07;;;;;;;9.07;4.07;;;30.10;96.70;;;;;;5024431;28;20049;-75
2023/09/18 11:38:50;;;;;;;9.68;4.15;;;30.30;96.70;;;;;;5041056;28;20056;-75
2023/09/18 11:41:27;;;;;;;7.10;4.18;;;30.40;96.70;;;;;;5025105;28;20071;-75
2023/09/18 11:44:28;;;;;;;8.50;4.57;;;30.60;96.70;;;;;;5024238;28;20095;-74
2023/09/18 11:47:00;;;;;;;11.10;4.03;;;30.60;96.70;;;;;;5034127;28;20064;-75
2023/09/18 11:49:31;;;;;;;10.15;4.28;;;30.70;96.70;;;;;;5024924;28;20501;-75
2023/09/18 11:52:00;;;;;;;9.73;4.13;;;30.90;96.70;;;;;;5025264;28;20051;-75
2023/09/18 11:54:29;;;;;;;6.82;3.58;;;30.90;96.70;;;;;;5041674;28;20051;-75
2023/09/18 11:57:04;;;;;;;12.20;4.85;;;30.90;96.70;;;;;;5007907;28;20049;-75
2023/09/18 11:59:38;;;;;;;9.65;4.50;;;30.60;96.70;;;;;;5041508;28;20055;-74
2023/09/18 12:02:20;;;;;;;7.25;3.95;;;30.40;96.70;;;;;;5067828;28;20063;-74
2023/09/18 12:04:49;;;;;;;9.25;4.25;;;30.40;96.70;;;;;;5066873;28;20142;-75
2023/09/18 12:07:19;;;;;;;10.00;3.92;;;30.30;96.70;;;;;;5076863;28;20040;-74
2023/09/18 12:09:47;;;;;;;8.30;4.53;;;30.20;96.70;;;;;;5104218;28;20071;-74
2023/09/18 12:12:17;;;;;;;7.38;4.18;;;30.30;96.70;;;;;;5104711;28;20569;-74
2023/09/18 12:14:46;;;;;;;14.05;4.57;;;30.20;96.70;;;;;;5108218;28;20132;-74
2023/09/18 12:17:16;;;;;;;11.90;4.82;;;30.30;96.70;;;;;;5090716;28;20418;-75
2023/09/18 12:19:53;;;;;;;10.52;4.47;;;30.30;96.70;;;;;;5090430;28;20064;-74
2023/09/18 12:22:26;;;;;;;13.30;4.32;;;30.20;96.70;;;;;;5090483;28;20045;-73
2023/09/18 12:25:09;;;;;;;13.95;4.90;;;30.20;96.70;;;;;;5108820;28;20035;-74
2023/09/18 12:27:42;;;;;;;11.13;5.00;;;30.20;96.70;;;;;;5092111;28;20493;-75
2023/09/18 12:30:12;;;;;;;11.43;3.75;;;30.30;96.70;;;;;;5088400;28;20044;-74
2023/09/18 12:32:42;;;;;;;16.25;5.10;;;30.30;96.70;;;;;;5090395;28;20071;-75
2023/09/18 12:35:14;;;;;;;12.02;4.60;;;30.30;96.70;;;;;;5091203;28;20051;-75
2023/09/18 12:37:43;;;;;;;10.65;4.72;;;30.40;96.70;;;;;;5090412;28;20731;-74
2023/09/18 12:40:22;;;;;;;10.18;4.28;;;30.50;96.70;;;;;;5082763;28;20139;-75
2023/09/18 12:42:51;;;;;;;9.13;4.43;;;30.60;96.70;;;;;;5069790;28;20083;-75
2023/09/18 12:45:19;;;;;;;20.55;4.72;;;30.70;96.70;;;;;;5086375;28;20047;-75
2023/09/18 12:47:50;;;;;;;13.30;4.88;;;30.60;96.70;;;;;;5087411;28;20040;-75
2023/09/18 12:50:18;;;;;;;16.92;4.97;;;30.60;96.70;;;;;;5086799;28;20044;-75
2023/09/18 12:52:47;;;;;;;10.55;4.13;;;30.70;96.70;;;;;;5086558;28;20051;-75
2023/09/18 12:55:23;;;;;;;11.80;5.28;;;30.60;96.70;;;;;;5086077;28;20051;-75
2023/09/18 12:57:52;;;;;;;13.60;4.53;;;30.60;96.70;;;;;;5069675;28;20362;-74
2023/09/18 13:00:26;;;;;;;12.30;4.70;;;30.60;96.70;;;;;;5087214;28;20040;-75
2023/09/18 13:02:57;;;;;;;12.18;5.32;;;30.60;96.70;;;;;;5085950;28;20040;-74